sensor_id;sensor_type;location;lat;lon;timestamp;P1;durP1;ratioP1;P2;durP2;ratioP2
25169;SDS011;13129;48.012;10.352;2022-08-21T03:30:44;2.00;;;1.83;;
25169;SDS011;13129;48.012;10.352;2022-08-21T03:33:12;2.88;;;2.15;;
25169;SDS011;13129;48.012;10.352;2022-08-21T03:35:38;1.95;;;1.85;;
25169;SDS011;13129;48.012;10.352;2022-08-21T03:38:05;2.60;;;2.40;;
25169;SDS011;13129;48.012;10.352;2022-08-21T03:40:31;2.08;;;1.98;;
25169;SDS011;13129;48.012;10.352;2022-08-21T03:42:57;2.72;;;1.85;;
25169;SDS011;13129;48.012;10.352;2022-08-21T03:45:23;2.08;;;1.90;;
25169;SDS011;13129;48.012;10.352;2022-08-21T03:47:50;2.00;;;1.73;;
25169;SDS011;13129;48.012;10.352;2022-08-21T03:52:47;2.00;;;1.90;;
25169;SDS011;13129;48.012;10.352;2022-08-21T03:55:13;2.00;;;1.90;;
25169;SDS011;13129;48.012;10.352;2022-08-21T03:57:39;2.55;;;1.70;;
25169;SDS011;13129;48.012;10.352;2022-08-21T04:00:05;1.98;;;1.88;;
25169;SDS011;13129;48.012;10.352;2022-08-21T04:02:33;2.38;;;2.17;;
25169;SDS011;13129;48.012;10.352;2022-08-21T04:04:59;1.02;;;1.02;;
25169;SDS011;13129;48.012;10.352;2022-08-21T04:07:25;1.20;;;1.20;;
25169;SDS011;13129;48.012;10.352;2022-08-21T04:09:50;1.35;;;1.20;;
25169;SDS011;13129;48.012;10.352;2022-08-21T04:12:16;1.20;;;1.20;;
25169;SDS011;13129;48.012;10.352;2022-08-21T04:14:41;1.08;;;0.98;;
25169;SDS011;13129;48.012;10.352;2022-08-21T04:17:07;1.60;;;1.50;;
25169;SDS011;13129;48.012;10.352;2022-08-21T04:19:33;1.40;;;1.30;;
25169;SDS011;13129;48.012;10.352;2022-08-21T04:21:58;1.95;;;1.48;;
25169;SDS011;13129;48.012;10.352;2022-08-21T04:24:24;2.47;;;1.67;;
25169;SDS011;13129;48.012;10.352;2022-08-21T04:26:50;1.02;;;1.02;;
25169;SDS011;13129;48.012;10.352;2022-08-21T04:29:15;1.45;;;1.35;;
25169;SDS011;13129;48.012;10.352;2022-08-21T04:31:41;1.65;;;1.40;;
25169;SDS011;13129;48.012;10.352;2022-08-21T04:34:08;1.88;;;1.77;;
25169;SDS011;13129;48.012;10.352;2022-08-21T04:36:34;3.47;;;2.15;;
25169;SDS011;13129;48.012;10.352;2022-08-21T04:39:00;2.35;;;2.25;;
25169;SDS011;13129;48.012;10.352;2022-08-21T04:41:26;1.80;;;1.70;;
25169;SDS011;13129;48.012;10.352;2022-08-21T04:43:53;2.10;;;1.88;;
25169;SDS011;13129;48.012;10.352;2022-08-21T04:46:20;2.20;;;1.70;;
25169;SDS011;13129;48.012;10.352;2022-08-21T04:48:46;1.98;;;1.77;;
25169;SDS011;13129;48.012;10.352;2022-08-21T04:51:17;2.75;;;1.73;;
25169;SDS011;13129;48.012;10.352;2022-08-21T04:53:50;1.83;;;1.73;;
25169;SDS011;13129;48.012;10.352;2022-08-21T04:56:40;2.00;;;1.83;;
25169;SDS011;13129;48.012;10.352;2022-08-21T05:01:42;1.98;;;1.88;;
25169;SDS011;13129;48.012;10.352;2022-08-21T05:04:10;2.45;;;2.25;;
25169;SDS011;13129;48.012;10.352;2022-08-21T05:06:39;2.42;;;2.03;;
25169;SDS011;13129;48.012;10.352;2022-08-21T05:09:07;3.08;;;2.10;;
25169;SDS011;13129;48.012;10.352;2022-08-21T05:11:36;1.85;;;1.75;;
25169;SDS011;13129;48.012;10.352;2022-08-21T05:14:02;2.55;;;2.35;;
25169;SDS011;13129;48.012;10.352;2022-08-21T05:16:28;2.75;;;2.00;;
25169;SDS011;13129;48.012;10.352;2022-08-21T05:18:54;1.83;;;1.70;;
25169;SDS011;13129;48.012;10.352;2022-08-21T05:21:19;3.05;;;2.80;;
25169;SDS011;13129;48.012;10.352;2022-08-21T05:23:45;3.42;;;3.22;;
25169;SDS011;13129;48.012;10.352;2022-08-21T05:26:11;3.92;;;3.53;;
25169;SDS011;13129;48.012;10.352;2022-08-21T05:28:37;3.80;;;3.50;;
25169;SDS011;13129;48.012;10.352;2022-08-21T05:31:03;3.78;;;2.97;;
25169;SDS011;13129;48.012;10.352;2022-08-21T05:33:29;3.10;;;2.80;;
25169;SDS011;13129;48.012;10.352;2022-08-21T05:35:55;2.80;;;2.42;;
25169;SDS011;13129;48.012;10.352;2022-08-21T05:38:21;3.47;;;2.20;;
25169;SDS011;13129;48.012;10.352;2022-08-21T05:40:48;3.92;;;1.98;;
25169;SDS011;13129;48.012;10.352;2022-08-21T05:43:13;2.10;;;1.90;;
25169;SDS011;13129;48.012;10.352;2022-08-21T05:45:39;1.75;;;1.63;;
25169;SDS011;13129;48.012;10.352;2022-08-21T05:48:15;2.35;;;1.45;;
25169;SDS011;13129;48.012;10.352;2022-08-21T05:50:44;1.60;;;1.50;;
25169;SDS011;13129;48.012;10.352;2022-08-21T05:53:11;1.85;;;1.75;;
25169;SDS011;13129;48.012;10.352;2022-08-21T05:55:38;1.80;;;1.70;;
25169;SDS011;13129;48.012;10.352;2022-08-21T05:58:06;1.35;;;1.33;;
25169;SDS011;13129;48.012;10.352;2022-08-21T06:00:31;1.83;;;1.52;;
25169;SDS011;13129;48.012;10.352;2022-08-21T06:02:58;1.52;;;1.35;;
25169;SDS011;13129;48.012;10.352;2022-08-21T06:05:24;1.60;;;1.42;;
25169;SDS011;13129;48.012;10.352;2022-08-21T06:07:50;1.88;;;1.38;;
25169;SDS011;13129;48.012;10.352;2022-08-21T06:10:16;1.75;;;1.65;;
25169;SDS011;13129;48.012;10.352;2022-08-21T06:12:42;1.73;;;1.63;;
25169;SDS011;13129;48.012;10.352;2022-08-21T06:15:08;1.52;;;1.42;;
25169;SDS011;13129;48.012;10.352;2022-08-21T06:17:34;3.60;;;1.80;;
25169;SDS011;13129;48.012;10.352;2022-08-21T06:19:59;1.58;;;1.48;;
25169;SDS011;13129;48.012;10.352;2022-08-21T06:22:25;1.60;;;1.50;;
25169;SDS011;13129;48.012;10.352;2022-08-21T06:24:51;1.73;;;1.30;;
25169;SDS011;13129;48.012;10.352;2022-08-21T06:27:17;1.85;;;1.30;;
25169;SDS011;13129;48.012;10.352;2022-08-21T06:29:42;2.53;;;1.73;;
25169;SDS011;13129;48.012;10.352;2022-08-21T06:32:10;1.60;;;1.50;;
25169;SDS011;13129;48.012;10.352;2022-08-21T06:34:37;1.30;;;1.20;;
25169;SDS011;13129;48.012;10.352;2022-08-21T06:37:04;1.20;;;1.20;;
25169;SDS011;13129;48.012;10.352;2022-08-21T06:39:29;1.45;;;1.35;;
25169;SDS011;13129;48.012;10.352;2022-08-21T06:41:55;1.92;;;1.30;;
25169;SDS011;13129;48.012;10.352;2022-08-21T06:44:21;1.15;;;0.95;;
25169;SDS011;13129;48.012;10.352;2022-08-21T06:46:47;1.20;;;1.10;;
25169;SDS011;13129;48.012;10.352;2022-08-21T06:49:13;1.38;;;1.00;;
25169;SDS011;13129;48.012;10.352;2022-08-21T06:51:39;0.98;;;0.88;;
25169;SDS011;13129;48.012;10.352;2022-08-21T06:54:05;0.90;;;0.90;;
25169;SDS011;13129;48.012;10.352;2022-08-21T06:56:31;1.27;;;1.20;;
25169;SDS011;13129;48.012;10.352;2022-08-21T06:58:58;1.25;;;1.00;;
25169;SDS011;13129;48.012;10.352;2022-08-21T07:01:24;1.52;;;1.42;;
25169;SDS011;13129;48.012;10.352;2022-08-21T07:03:51;1.10;;;1.10;;
25169;SDS011;13129;48.012;10.352;2022-08-21T07:06:16;2.20;;;1.30;;
25169;SDS011;13129;48.012;10.352;2022-08-21T07:08:42;1.40;;;1.30;;
25169;SDS011;13129;48.012;10.352;2022-08-21T07:11:18;1.50;;;1.40;;
25169;SDS011;13129;48.012;10.352;2022-08-21T07:13:45;1.33;;;1.30;;
25169;SDS011;13129;48.012;10.352;2022-08-21T07:16:13;2.15;;;1.20;;
25169;SDS011;13129;48.012;10.352;2022-08-21T07:18:39;1.60;;;1.30;;
25169;SDS011;13129;48.012;10.352;2022-08-21T07:21:05;1.45;;;1.35;;
25169;SDS011;13129;48.012;10.352;2022-08-21T07:23:33;3.65;;;1.10;;
25169;SDS011;13129;48.012;10.352;2022-08-21T07:26:04;1.67;;;1.27;;
25169;SDS011;13129;48.012;10.352;2022-08-21T07:28:29;1.38;;;1.27;;
25169;SDS011;13129;48.012;10.352;2022-08-21T07:30:57;2.08;;;1.55;;
25169;SDS011;13129;48.012;10.352;2022-08-21T07:33:25;1.60;;;1.50;;
25169;SDS011;13129;48.012;10.352;2022-08-21T07:35:51;1.20;;;1.10;;
25169;SDS011;13129;48.012;10.352;2022-08-21T07:38:17;1.48;;;1.38;;
25169;SDS011;13129;48.012;10.352;2022-08-21T07:40:44;2.08;;;1.35;;
25169;SDS011;13129;48.012;10.352;2022-08-21T07:43:11;2.45;;;1.48;;
25169;SDS011;13129;48.012;10.352;2022-08-21T07:45:36;1.73;;;1.63;;
25169;SDS011;13129;48.012;10.352;2022-08-21T07:48:03;2.20;;;1.63;;
25169;SDS011;13129;48.012;10.352;2022-08-21T07:50:29;2.25;;;1.90;;
25169;SDS011;13129;48.012;10.352;2022-08-21T07:52:55;1.80;;;1.70;;
25169;SDS011;13129;48.012;10.352;2022-08-21T07:55:21;2.90;;;1.70;;
25169;SDS011;13129;48.012;10.352;2022-08-21T07:57:47;1.70;;;1.60;;
25169;SDS011;13129;48.012;10.352;2022-08-21T08:00:14;1.92;;;1.70;;
25169;SDS011;13129;48.012;10.352;2022-08-21T08:02:47;2.15;;;1.95;;
25169;SDS011;13129;48.012;10.352;2022-08-21T08:05:15;2.08;;;1.88;;
25169;SDS011;13129;48.012;10.352;2022-08-21T08:07:42;1.98;;;1.80;;
25169;SDS011;13129;48.012;10.352;2022-08-21T08:10:08;3.30;;;2.03;;
25169;SDS011;13129;48.012;10.352;2022-08-21T08:12:36;2.10;;;1.90;;
25169;SDS011;13129;48.012;10.352;2022-08-21T08:15:04;1.85;;;1.75;;
25169;SDS011;13129;48.012;10.352;2022-08-21T08:17:31;2.00;;;1.90;;
25169;SDS011;13129;48.012;10.352;2022-08-21T08:19:57;1.95;;;1.85;;
25169;SDS011;13129;48.012;10.352;2022-08-21T08:22:25;1.60;;;1.50;;
25169;SDS011;13129;48.012;10.352;2022-08-21T08:24:52;2.78;;;2.42;;
25169;SDS011;13129;48.012;10.352;2022-08-21T08:27:19;2.85;;;1.83;;
25169;SDS011;13129;48.012;10.352;2022-08-21T08:29:45;2.50;;;2.30;;
25169;SDS011;13129;48.012;10.352;2022-08-21T08:32:12;2.55;;;1.98;;
25169;SDS011;13129;48.012;10.352;2022-08-21T08:34:38;4.55;;;2.42;;
25169;SDS011;13129;48.012;10.352;2022-08-21T08:37:04;2.63;;;2.20;;
25169;SDS011;13129;48.012;10.352;2022-08-21T08:39:31;2.03;;;1.88;;
25169;SDS011;13129;48.012;10.352;2022-08-21T08:44:30;2.72;;;2.30;;
25169;SDS011;13129;48.012;10.352;2022-08-21T08:46:56;2.00;;;1.83;;
25169;SDS011;13129;48.012;10.352;2022-08-21T08:57:15;4.03;;;2.40;;
25169;SDS011;13129;48.012;10.352;2022-08-21T08:59:44;3.70;;;2.53;;
25169;SDS011;13129;48.012;10.352;2022-08-21T09:02:13;2.53;;;2.30;;
25169;SDS011;13129;48.012;10.352;2022-08-21T09:04:40;2.85;;;2.40;;
25169;SDS011;13129;48.012;10.352;2022-08-21T09:12:56;2.80;;;2.60;;
25169;SDS011;13129;48.012;10.352;2022-08-21T09:27:26;4.45;;;2.60;;
25169;SDS011;13129;48.012;10.352;2022-08-21T09:29:54;2.33;;;2.05;;
25169;SDS011;13129;48.012;10.352;2022-08-21T09:32:24;2.95;;;2.38;;
25169;SDS011;13129;48.012;10.352;2022-08-21T09:34:59;3.97;;;2.65;;
25169;SDS011;13129;48.012;10.352;2022-08-21T09:37:33;3.75;;;2.33;;
25169;SDS011;13129;48.012;10.352;2022-08-21T09:40:00;2.17;;;1.97;;
25169;SDS011;13129;48.012;10.352;2022-08-21T09:42:29;2.80;;;2.60;;
25169;SDS011;13129;48.012;10.352;2022-08-21T09:45:13;2.38;;;2.13;;
25169;SDS011;13129;48.012;10.352;2022-08-21T09:47:42;3.88;;;2.85;;
25169;SDS011;13129;48.012;10.352;2022-08-21T09:50:14;4.53;;;2.55;;
25169;SDS011;13129;48.012;10.352;2022-08-21T09:52:55;2.63;;;2.40;;
25169;SDS011;13129;48.012;10.352;2022-08-21T09:55:33;2.50;;;2.30;;
25169;SDS011;13129;48.012;10.352;2022-08-21T09:58:29;2.92;;;2.72;;
25169;SDS011;13129;48.012;10.352;2022-08-21T10:00:58;3.42;;;2.75;;
25169;SDS011;13129;48.012;10.352;2022-08-21T10:03:25;2.50;;;1.92;;
25169;SDS011;13129;48.012;10.352;2022-08-21T10:06:01;3.00;;;2.70;;
25169;SDS011;13129;48.012;10.352;2022-08-21T10:08:33;2.78;;;2.30;;
25169;SDS011;13129;48.012;10.352;2022-08-21T10:11:10;5.00;;;2.58;;
25169;SDS011;13129;48.012;10.352;2022-08-21T10:13:46;2.90;;;2.40;;
25169;SDS011;13129;48.012;10.352;2022-08-21T10:19:31;3.35;;;2.92;;
25169;SDS011;13129;48.012;10.352;2022-08-21T10:24:58;3.08;;;2.88;;
25169;SDS011;13129;48.012;10.352;2022-08-21T10:27:56;3.03;;;2.58;;
25169;SDS011;13129;48.012;10.352;2022-08-21T10:30:49;3.85;;;2.75;;
25169;SDS011;13129;48.012;10.352;2022-08-21T10:38:39;3.20;;;2.55;;
25169;SDS011;13129;48.012;10.352;2022-08-21T10:55:03;3.17;;;2.88;;
25169;SDS011;13129;48.012;10.352;2022-08-21T11:00:14;4.15;;;3.00;;
25169;SDS011;13129;48.012;10.352;2022-08-21T11:02:49;2.92;;;2.72;;
25169;SDS011;13129;48.012;10.352;2022-08-21T11:05:20;3.20;;;2.95;;
25169;SDS011;13129;48.012;10.352;2022-08-21T11:08:02;3.63;;;3.33;;
25169;SDS011;13129;48.012;10.352;2022-08-21T11:10:42;2.80;;;2.55;;
25169;SDS011;13129;48.012;10.352;2022-08-21T11:13:13;4.85;;;3.17;;
25169;SDS011;13129;48.012;10.352;2022-08-21T11:16:10;3.38;;;2.90;;
25169;SDS011;13129;48.012;10.352;2022-08-21T11:18:45;4.78;;;3.63;;
25169;SDS011;13129;48.012;10.352;2022-08-21T11:21:48;3.67;;;3.35;;
25169;SDS011;13129;48.012;10.352;2022-08-21T11:27:23;5.32;;;3.10;;
25169;SDS011;13129;48.012;10.352;2022-08-21T11:29:55;3.15;;;2.83;;
25169;SDS011;13129;48.012;10.352;2022-08-21T11:38:07;3.92;;;2.83;;
25169;SDS011;13129;48.012;10.352;2022-08-21T11:51:54;3.00;;;2.67;;
25169;SDS011;13129;48.012;10.352;2022-08-21T11:59:40;3.15;;;2.55;;
25169;SDS011;13129;48.012;10.352;2022-08-21T12:02:29;3.85;;;2.97;;
25169;SDS011;13129;48.012;10.352;2022-08-21T12:05:03;2.80;;;2.60;;
25169;SDS011;13129;48.012;10.352;2022-08-21T12:07:42;5.25;;;2.92;;
25169;SDS011;13129;48.012;10.352;2022-08-21T12:10:13;3.53;;;2.88;;
25169;SDS011;13129;48.012;10.352;2022-08-21T12:12:42;3.65;;;2.60;;
25169;SDS011;13129;48.012;10.352;2022-08-21T12:17:54;2.90;;;2.60;;
25169;SDS011;13129;48.012;10.352;2022-08-21T12:20:33;3.45;;;3.13;;
25169;SDS011;13129;48.012;10.352;2022-08-21T12:23:15;3.15;;;2.85;;
25169;SDS011;13129;48.012;10.352;2022-08-21T12:28:35;4.20;;;2.75;;
25169;SDS011;13129;48.012;10.352;2022-08-21T12:31:02;4.00;;;3.33;;
25169;SDS011;13129;48.012;10.352;2022-08-21T12:33:29;3.92;;;3.38;;
25169;SDS011;13129;48.012;10.352;2022-08-21T12:36:13;3.20;;;2.90;;
25169;SDS011;13129;48.012;10.352;2022-08-21T12:38:51;2.85;;;2.65;;
25169;SDS011;13129;48.012;10.352;2022-08-21T12:41:22;4.82;;;3.05;;
25169;SDS011;13129;48.012;10.352;2022-08-21T12:44:00;3.80;;;2.92;;
25169;SDS011;13129;48.012;10.352;2022-08-21T12:46:37;2.95;;;2.75;;
25169;SDS011;13129;48.012;10.352;2022-08-21T12:49:15;3.50;;;3.08;;
25169;SDS011;13129;48.012;10.352;2022-08-21T12:51:50;3.25;;;2.72;;
25169;SDS011;13129;48.012;10.352;2022-08-21T12:54:42;3.10;;;2.90;;
25169;SDS011;13129;48.012;10.352;2022-08-21T12:57:17;4.82;;;2.92;;
25169;SDS011;13129;48.012;10.352;2022-08-21T12:59:45;2.90;;;2.63;;
25169;SDS011;13129;48.012;10.352;2022-08-21T13:02:18;3.65;;;2.90;;
25169;SDS011;13129;48.012;10.352;2022-08-21T13:04:47;3.58;;;3.05;;
25169;SDS011;13129;48.012;10.352;2022-08-21T13:07:21;4.25;;;3.40;;
25169;SDS011;13129;48.012;10.352;2022-08-21T13:09:52;3.33;;;3.05;;
25169;SDS011;13129;48.012;10.352;2022-08-21T13:12:23;2.85;;;2.65;;
25169;SDS011;13129;48.012;10.352;2022-08-21T13:14:50;4.18;;;2.63;;
25169;SDS011;13129;48.012;10.352;2022-08-21T13:17:18;3.63;;;2.92;;
25169;SDS011;13129;48.012;10.352;2022-08-21T13:20:03;3.42;;;2.85;;
25169;SDS011;13129;48.012;10.352;2022-08-21T13:22:29;2.58;;;2.38;;
25169;SDS011;13129;48.012;10.352;2022-08-21T13:24:55;3.28;;;2.47;;
25169;SDS011;13129;48.012;10.352;2022-08-21T13:27:30;3.13;;;2.83;;
25169;SDS011;13129;48.012;10.352;2022-08-21T13:32:34;2.88;;;2.45;;
25169;SDS011;13129;48.012;10.352;2022-08-21T13:35:09;4.70;;;2.83;;
25169;SDS011;13129;48.012;10.352;2022-08-21T13:37:41;2.83;;;2.63;;
25169;SDS011;13129;48.012;10.352;2022-08-21T13:40:19;3.13;;;2.53;;
25169;SDS011;13129;48.012;10.352;2022-08-21T13:42:49;4.07;;;2.80;;
25169;SDS011;13129;48.012;10.352;2022-08-21T13:45:18;3.13;;;2.33;;
25169;SDS011;13129;48.012;10.352;2022-08-21T13:47:49;3.22;;;2.90;;
25169;SDS011;13129;48.012;10.352;2022-08-21T13:50:16;2.80;;;2.58;;
25169;SDS011;13129;48.012;10.352;2022-08-21T13:52:50;2.55;;;2.35;;
25169;SDS011;13129;48.012;10.352;2022-08-21T13:55:21;2.60;;;2.40;;
25169;SDS011;13129;48.012;10.352;2022-08-21T13:57:46;3.80;;;2.58;;
25169;SDS011;13129;48.012;10.352;2022-08-21T14:05:31;2.60;;;2.40;;
25169;SDS011;13129;48.012;10.352;2022-08-21T14:08:06;2.28;;;2.05;;
25169;SDS011;13129;48.012;10.352;2022-08-21T14:10:53;2.80;;;2.50;;
25169;SDS011;13129;48.012;10.352;2022-08-21T14:13:39;2.53;;;2.33;;
25169;SDS011;13129;48.012;10.352;2022-08-21T14:16:12;3.05;;;2.10;;
25169;SDS011;13129;48.012;10.352;2022-08-21T14:18:44;2.10;;;2.00;;
25169;SDS011;13129;48.012;10.352;2022-08-21T14:21:13;2.33;;;1.87;;
25169;SDS011;13129;48.012;10.352;2022-08-21T14:23:59;2.17;;;1.98;;
25169;SDS011;13129;48.012;10.352;2022-08-21T14:26:49;2.33;;;2.13;;
25169;SDS011;13129;48.012;10.352;2022-08-21T14:29:31;2.30;;;2.10;;
25169;SDS011;13129;48.012;10.352;2022-08-21T14:32:15;3.20;;;2.70;;
25169;SDS011;13129;48.012;10.352;2022-08-21T14:34:45;3.28;;;2.20;;
25169;SDS011;13129;48.012;10.352;2022-08-21T14:37:10;3.28;;;2.40;;
25169;SDS011;13129;48.012;10.352;2022-08-21T14:39:36;2.00;;;1.85;;
25169;SDS011;13129;48.012;10.352;2022-08-21T14:42:02;2.63;;;2.00;;
25169;SDS011;13129;48.012;10.352;2022-08-21T14:44:28;3.45;;;2.10;;
25169;SDS011;13129;48.012;10.352;2022-08-21T14:46:53;2.60;;;2.40;;
25169;SDS011;13129;48.012;10.352;2022-08-21T14:49:20;2.58;;;2.38;;
25169;SDS011;13129;48.012;10.352;2022-08-21T14:51:46;2.63;;;2.03;;
25169;SDS011;13129;48.012;10.352;2022-08-21T14:54:12;2.60;;;2.35;;
25169;SDS011;13129;48.012;10.352;2022-08-21T14:56:38;2.90;;;2.13;;
25169;SDS011;13129;48.012;10.352;2022-08-21T14:59:05;2.45;;;2.25;;
25169;SDS011;13129;48.012;10.352;2022-08-21T15:01:34;2.35;;;2.20;;
25169;SDS011;13129;48.012;10.352;2022-08-21T15:04:09;2.30;;;2.10;;
25169;SDS011;13129;48.012;10.352;2022-08-21T15:06:35;2.67;;;2.47;;
25169;SDS011;13129;48.012;10.352;2022-08-21T15:09:01;3.40;;;2.38;;
25169;SDS011;13129;48.012;10.352;2022-08-21T15:11:28;2.40;;;2.20;;
25169;SDS011;13129;48.012;10.352;2022-08-21T15:13:56;2.63;;;2.42;;
25169;SDS011;13129;48.012;10.352;2022-08-21T15:16:26;3.28;;;2.47;;
25169;SDS011;13129;48.012;10.352;2022-08-21T15:18:53;3.10;;;2.45;;
25169;SDS011;13129;48.012;10.352;2022-08-21T15:21:19;3.45;;;3.15;;
25169;SDS011;13129;48.012;10.352;2022-08-21T15:23:45;3.58;;;2.80;;
25169;SDS011;13129;48.012;10.352;2022-08-21T15:26:11;4.07;;;3.30;;
25169;SDS011;13129;48.012;10.352;2022-08-21T15:28:36;3.38;;;3.08;;
25169;SDS011;13129;48.012;10.352;2022-08-21T15:31:03;4.43;;;2.92;;
25169;SDS011;13129;48.012;10.352;2022-08-21T15:33:29;2.90;;;2.70;;
25169;SDS011;13129;48.012;10.352;2022-08-21T15:35:55;3.72;;;2.63;;
25169;SDS011;13129;48.012;10.352;2022-08-21T15:38:21;3.72;;;3.40;;
25169;SDS011;13129;48.012;10.352;2022-08-21T15:40:47;3.63;;;2.70;;
25169;SDS011;13129;48.012;10.352;2022-08-21T15:43:21;2.83;;;2.63;;
25169;SDS011;13129;48.012;10.352;2022-08-21T15:45:52;5.20;;;2.72;;
25169;SDS011;13129;48.012;10.352;2022-08-21T15:48:18;2.67;;;2.47;;
25169;SDS011;13129;48.012;10.352;2022-08-21T15:50:44;3.33;;;3.03;;
25169;SDS011;13129;48.012;10.352;2022-08-21T15:53:10;3.53;;;3.05;;
25169;SDS011;13129;48.012;10.352;2022-08-21T15:55:36;3.22;;;2.95;;
25169;SDS011;13129;48.012;10.352;2022-08-21T15:58:02;4.28;;;2.83;;
25169;SDS011;13129;48.012;10.352;2022-08-21T16:00:29;4.07;;;2.90;;
25169;SDS011;13129;48.012;10.352;2022-08-21T16:02:58;3.22;;;2.97;;
25169;SDS011;13129;48.012;10.352;2022-08-21T16:05:25;4.82;;;2.88;;
25169;SDS011;13129;48.012;10.352;2022-08-21T16:07:51;3.13;;;2.83;;
25169;SDS011;13129;48.012;10.352;2022-08-21T16:10:19;3.00;;;2.70;;
25169;SDS011;13129;48.012;10.352;2022-08-21T16:12:53;3.65;;;2.78;;
25169;SDS011;13129;48.012;10.352;2022-08-21T16:15:22;2.70;;;2.50;;
25169;SDS011;13129;48.012;10.352;2022-08-21T16:17:48;3.25;;;2.95;;
25169;SDS011;13129;48.012;10.352;2022-08-21T16:20:20;2.70;;;2.42;;
25169;SDS011;13129;48.012;10.352;2022-08-21T16:22:51;4.03;;;2.70;;
25169;SDS011;13129;48.012;10.352;2022-08-21T16:25:18;2.92;;;2.60;;
25169;SDS011;13129;48.012;10.352;2022-08-21T16:27:46;2.70;;;2.38;;
25169;SDS011;13129;48.012;10.352;2022-08-21T16:30:15;3.03;;;2.70;;
25169;SDS011;13129;48.012;10.352;2022-08-21T16:32:43;3.65;;;3.10;;
25169;SDS011;13129;48.012;10.352;2022-08-21T16:35:10;3.00;;;2.80;;
25169;SDS011;13129;48.012;10.352;2022-08-21T16:37:39;3.33;;;2.65;;
25169;SDS011;13129;48.012;10.352;2022-08-21T16:40:05;3.65;;;2.65;;
25169;SDS011;13129;48.012;10.352;2022-08-21T16:42:34;4.05;;;2.95;;
25169;SDS011;13129;48.012;10.352;2022-08-21T16:45:01;3.42;;;2.75;;
25169;SDS011;13129;48.012;10.352;2022-08-21T16:47:28;3.03;;;2.80;;
25169;SDS011;13129;48.012;10.352;2022-08-21T16:49:55;4.28;;;3.10;;
25169;SDS011;13129;48.012;10.352;2022-08-21T16:52:22;2.83;;;2.47;;
25169;SDS011;13129;48.012;10.352;2022-08-21T16:54:48;3.50;;;2.90;;
25169;SDS011;13129;48.012;10.352;2022-08-21T16:57:13;4.63;;;3.10;;
25169;SDS011;13129;48.012;10.352;2022-08-21T16:59:39;4.22;;;3.00;;
25169;SDS011;13129;48.012;10.352;2022-08-21T17:02:08;3.85;;;3.47;;
25169;SDS011;13129;48.012;10.352;2022-08-21T17:04:51;3.60;;;3.20;;
25169;SDS011;13129;48.012;10.352;2022-08-21T17:07:16;4.55;;;3.20;;
25169;SDS011;13129;48.012;10.352;2022-08-21T17:09:42;3.40;;;3.05;;
25169;SDS011;13129;48.012;10.352;2022-08-21T17:12:08;6.32;;;3.13;;
25169;SDS011;13129;48.012;10.352;2022-08-21T17:14:34;3.47;;;3.17;;
25169;SDS011;13129;48.012;10.352;2022-08-21T17:17:00;5.95;;;3.08;;
25169;SDS011;13129;48.012;10.352;2022-08-21T17:19:27;3.25;;;2.90;;
25169;SDS011;13129;48.012;10.352;2022-08-21T17:21:53;3.60;;;3.30;;
25169;SDS011;13129;48.012;10.352;2022-08-21T17:24:18;3.40;;;2.53;;
25169;SDS011;13129;48.012;10.352;2022-08-21T17:26:44;4.10;;;3.13;;
25169;SDS011;13129;48.012;10.352;2022-08-21T17:29:12;3.35;;;2.97;;
25169;SDS011;13129;48.012;10.352;2022-08-21T17:31:40;3.03;;;2.80;;
25169;SDS011;13129;48.012;10.352;2022-08-21T17:34:07;3.15;;;2.90;;
25169;SDS011;13129;48.012;10.352;2022-08-21T17:36:35;3.88;;;3.47;;
25169;SDS011;13129;48.012;10.352;2022-08-21T17:39:02;3.00;;;2.78;;
25169;SDS011;13129;48.012;10.352;2022-08-21T17:41:29;3.65;;;3.35;;
25169;SDS011;13129;48.012;10.352;2022-08-21T17:43:55;3.78;;;3.03;;
25169;SDS011;13129;48.012;10.352;2022-08-21T17:46:21;3.80;;;3.10;;
25169;SDS011;13129;48.012;10.352;2022-08-21T17:48:50;3.83;;;2.88;;
25169;SDS011;13129;48.012;10.352;2022-08-21T17:51:17;3.45;;;3.15;;
25169;SDS011;13129;48.012;10.352;2022-08-21T17:53:43;3.45;;;2.88;;
25169;SDS011;13129;48.012;10.352;2022-08-21T17:56:09;3.20;;;2.85;;
25169;SDS011;13129;48.012;10.352;2022-08-21T17:58:37;3.83;;;3.10;;
25169;SDS011;13129;48.012;10.352;2022-08-21T18:01:03;4.78;;;3.70;;
25169;SDS011;13129;48.012;10.352;2022-08-21T18:03:30;2.90;;;2.65;;
25169;SDS011;13129;48.012;10.352;2022-08-21T18:05:58;3.67;;;3.38;;
25169;SDS011;13129;48.012;10.352;2022-08-21T18:08:24;3.05;;;2.80;;
25169;SDS011;13129;48.012;10.352;2022-08-21T18:10:56;4.90;;;3.58;;
25169;SDS011;13129;48.012;10.352;2022-08-21T18:13:28;5.43;;;3.47;;
25169;SDS011;13129;48.012;10.352;2022-08-21T18:16:07;3.72;;;3.42;;
25169;SDS011;13129;48.012;10.352;2022-08-21T18:19:09;4.10;;;3.25;;
25169;SDS011;13129;48.012;10.352;2022-08-21T18:26:43;4.75;;;4.03;;
25169;SDS011;13129;48.012;10.352;2022-08-21T18:33:22;3.88;;;3.25;;
25169;SDS011;13129;48.012;10.352;2022-08-21T18:39:14;3.90;;;3.60;;
25169;SDS011;13129;48.012;10.352;2022-08-21T18:41:44;3.95;;;3.50;;
25169;SDS011;13129;48.012;10.352;2022-08-21T18:44:22;4.10;;;3.72;;
25169;SDS011;13129;48.012;10.352;2022-08-21T18:47:08;4.20;;;3.63;;
25169;SDS011;13129;48.012;10.352;2022-08-21T18:49:52;4.05;;;3.65;;
25169;SDS011;13129;48.012;10.352;2022-08-21T18:52:30;4.53;;;3.75;;
25169;SDS011;13129;48.012;10.352;2022-08-21T18:54:56;6.28;;;4.13;;
25169;SDS011;13129;48.012;10.352;2022-08-21T18:57:23;3.67;;;3.25;;
25169;SDS011;13129;48.012;10.352;2022-08-21T18:59:52;6.70;;;4.25;;
25169;SDS011;13129;48.012;10.352;2022-08-21T19:02:17;4.53;;;4.03;;
25169;SDS011;13129;48.012;10.352;2022-08-21T19:04:43;5.97;;;4.43;;
25169;SDS011;13129;48.012;10.352;2022-08-21T19:07:11;7.13;;;4.53;;
25169;SDS011;13129;48.012;10.352;2022-08-21T19:09:38;4.55;;;3.92;;
25169;SDS011;13129;48.012;10.352;2022-08-21T19:12:04;5.00;;;4.50;;
25169;SDS011;13129;48.012;10.352;2022-08-21T19:14:30;4.95;;;4.47;;
25169;SDS011;13129;48.012;10.352;2022-08-21T19:16:57;5.15;;;3.50;;
25169;SDS011;13129;48.012;10.352;2022-08-21T19:19:23;5.80;;;4.30;;
25169;SDS011;13129;48.012;10.352;2022-08-21T19:21:49;4.70;;;4.10;;
25169;SDS011;13129;48.012;10.352;2022-08-21T19:24:15;6.20;;;3.90;;
25169;SDS011;13129;48.012;10.352;2022-08-21T19:26:42;5.03;;;4.13;;
25169;SDS011;13129;48.012;10.352;2022-08-21T19:29:08;4.80;;;4.30;;
25169;SDS011;13129;48.012;10.352;2022-08-21T19:39:12;4.68;;;4.28;;
25169;SDS011;13129;48.012;10.352;2022-08-21T19:41:41;4.50;;;4.07;;
25169;SDS011;13129;48.012;10.352;2022-08-21T19:44:12;4.80;;;4.28;;
25169;SDS011;13129;48.012;10.352;2022-08-21T19:47:15;5.40;;;4.57;;
25169;SDS011;13129;48.012;10.352;2022-08-21T19:53:50;5.00;;;4.60;;
25169;SDS011;13129;48.012;10.352;2022-08-21T20:25:32;4.78;;;4.38;;
25169;SDS011;13129;48.012;10.352;2022-08-21T20:39:15;4.93;;;4.15;;
25169;SDS011;13129;48.012;10.352;2022-08-21T20:45:55;6.05;;;4.50;;
25169;SDS011;13129;48.012;10.352;2022-08-21T20:48:34;4.93;;;4.47;;
25169;SDS011;13129;48.012;10.352;2022-08-21T20:54:59;6.40;;;4.43;;
25169;SDS011;13129;48.012;10.352;2022-08-21T21:01:50;5.97;;;4.95;;
25169;SDS011;13129;48.012;10.352;2022-08-21T21:11:25;6.40;;;5.38;;
25169;SDS011;13129;48.012;10.352;2022-08-21T21:14:14;5.53;;;5.03;;
25169;SDS011;13129;48.012;10.352;2022-08-21T21:16:48;5.35;;;4.65;;
25169;SDS011;13129;48.012;10.352;2022-08-21T21:19:41;5.95;;;4.55;;
25169;SDS011;13129;48.012;10.352;2022-08-21T21:22:21;4.95;;;4.55;;